Time;durP1;ratioP1;P1;durP2;ratioP2;P2;SDS_P1;SDS_P2;PMS_P1;PMS_P2;Temp;Humidity;BMP_temperature;BMP_pressure;BME280_temperature;BME280_humidity;BME280_pressure;Samples;Min_cycle;Max_cycle;Signal;HPM_P1;HPM_P2
2023/05/27 00:00:00;;;;;;;6.33;3.50;;;;;;;17.34;73.22;100253.25;4913096;28;20749;-61
2023/05/27 00:02:30;;;;;;;16.73;4.50;;;;;;;17.27;73.33;100250.94;4911504;28;20814;-60
2023/05/27 00:05:03;;;;;;;7.27;4.07;;;;;;;17.23;73.13;100239.69;4907138;28;20813;-61
2023/05/27 00:07:34;;;;;;;11.00;4.60;;;;;;;17.29;73.21;100249.09;4912069;28;20371;-61
2023/05/27 00:10:05;;;;;;;9.23;4.20;;;;;;;17.18;73.33;100253.06;4904913;28;20296;-62
2023/05/27 00:12:35;;;;;;;7.13;4.00;;;;;;;17.19;72.31;100249.50;4902957;28;20389;-62
2023/05/27 00:15:07;;;;;;;8.13;3.87;;;;;;;17.15;72.91;100226.81;4912635;28;20276;-62
2023/05/27 00:17:39;;;;;;;7.73;4.47;;;;;;;17.08;73.23;100235.06;4904578;28;20415;-61
2023/05/27 00:20:12;;;;;;;8.60;3.97;;;;;;;17.06;72.61;100232.50;4905121;28;20287;-62
2023/05/27 00:22:43;;;;;;;8.60;4.37;;;;;;;17.12;72.92;100229.56;4900700;28;20564;-61
2023/05/27 00:25:13;;;;;;;11.90;4.67;;;;;;;17.24;73.01;100221.09;4903142;28;20279;-64
2023/05/27 00:27:44;;;;;;;9.83;4.20;;;;;;;17.17;71.99;100187.13;4901628;28;20290;-60
2023/05/27 00:30:15;;;;;;;8.60;3.83;;;;;;;17.56;71.89;100237.28;4900936;28;20322;-61
2023/05/27 00:32:46;;;;;;;8.73;3.83;;;;;;;17.64;71.82;100235.16;4898037;28;20300;-62
2023/05/27 00:35:19;;;;;;;9.17;3.97;;;;;;;17.63;70.42;100222.88;4905118;28;20739;-63
2023/05/27 00:37:50;;;;;;;9.23;3.57;;;;;;;17.56;70.61;100242.56;4913660;28;20353;-60
2023/05/27 00:40:23;;;;;;;10.80;3.93;;;;;;;17.48;70.94;100234.16;4902941;28;20379;-61
2023/05/27 00:42:53;;;;;;;10.30;3.93;;;;;;;17.40;70.74;100225.72;4902412;28;20785;-62
2023/05/27 00:45:24;;;;;;;8.50;3.53;;;;;;;17.50;71.07;100232.31;4908846;28;20659;-62
2023/05/27 00:47:54;;;;;;;10.90;3.80;;;;;;;17.62;71.07;100221.19;4909558;28;20278;-62
2023/05/27 00:50:27;;;;;;;10.20;3.30;;;;;;;17.56;70.73;100205.59;4908725;28;20276;-59
2023/05/27 00:52:58;;;;;;;12.70;3.97;;;;;;;17.77;70.21;100224.00;4909656;28;20274;-62
2023/05/27 00:55:28;;;;;;;7.50;3.27;;;;;;;17.82;69.90;100211.47;4907462;28;20290;-61
2023/05/27 00:58:00;;;;;;;5.63;3.43;;;;;;;17.92;69.20;100212.75;4908258;28;20318;-61
2023/05/27 01:00:31;;;;;;;7.07;3.33;;;;;;;18.29;69.23;100208.31;4908523;28;20287;-59
2023/05/27 01:03:02;;;;;;;9.83;3.33;;;;;;;18.76;68.62;100205.13;4908445;28;20317;-63
2023/05/27 01:05:35;;;;;;;8.50;3.40;;;;;;;19.19;65.86;100202.88;4908362;28;20315;-60
2023/05/27 01:08:13;;;;;;;6.17;2.90;;;;;;;19.48;65.38;100192.53;4907758;28;20288;-60
2023/05/27 01:10:50;;;;;;;9.63;3.22;;;;;;;19.56;63.89;100171.75;4908735;28;20419;-60
2023/05/27 01:13:32;;;;;;;7.30;3.17;;;;;;;19.92;62.83;100213.09;4898350;28;20053;-60
2023/05/27 01:16:07;;;;;;;5.97;3.00;;;;;;;20.13;61.43;100206.59;4898241;28;20290;-62
2023/05/27 01:18:40;;;;;;;7.80;3.17;;;;;;;20.30;61.63;100202.13;4897636;28;20616;-60
2023/05/27 01:21:24;;;;;;;9.53;3.37;;;;;;;20.59;61.91;100208.41;4908206;28;20797;-63
2023/05/27 01:23:56;;;;;;;8.00;3.30;;;;;;;20.41;60.45;100203.19;4897939;28;20946;-62
2023/05/27 01:26:26;;;;;;;23.53;4.57;;;;;;;20.07;61.46;100191.03;4901071;28;20408;-61
2023/05/27 01:28:57;;;;;;;6.33;3.57;;;;;;;20.06;62.16;100199.91;4895794;28;20305;-61
2023/05/27 01:31:37;;;;;;;9.10;3.70;;;;;;;19.50;61.51;100089.94;4894595;28;20279;-60
2023/05/27 01:34:11;;;;;;;14.30;3.83;;;;;;;20.03;61.33;100174.41;4884106;28;20800;-63
2023/05/27 01:36:47;;;;;;;10.33;4.00;;;;;;;20.13;61.52;100169.44;4894664;28;20275;-62
2023/05/27 01:39:19;;;;;;;41.40;5.00;;;;;;;20.34;61.27;100169.97;4898125;28;20278;-61
2023/05/27 01:41:50;;;;;;;19.10;3.80;;;;;;;20.44;60.01;100162.34;4910389;28;20740;-61
2023/05/27 01:44:22;;;;;;;9.30;3.40;;;;;;;20.49;60.13;100144.34;4909751;28;20290;-58
2023/05/27 01:46:54;;;;;;;9.73;3.10;;;;;;;20.66;59.87;100152.19;4909893;28;20286;-63
2023/05/27 01:49:25;;;;;;;7.10;3.07;;;;;;;20.78;59.35;100149.75;4909875;28;20362;-59
2023/05/27 01:51:55;;;;;;;12.73;3.40;;;;;;;20.87;59.68;100159.81;4907524;28;20279;-62
2023/05/27 01:54:28;;;;;;;6.03;3.10;;;;;;;21.10;59.40;100161.06;4912318;28;20773;-60
2023/05/27 01:56:58;;;;;;;9.60;3.60;;;;;;;21.15;58.83;100152.81;4907792;28;20303;-62
2023/05/27 01:59:29;;;;;;;10.83;3.07;;;;;;;21.27;58.85;100158.22;4907731;28;20341;-63
2023/05/27 02:02:00;;;;;;;8.90;3.60;;;;;;;21.40;58.58;100152.16;4908370;28;20275;-60
2023/05/27 02:04:31;;;;;;;8.40;3.57;;;;;;;21.57;57.70;100159.91;4904741;28;20770;-62
2023/05/27 02:07:01;;;;;;;9.07;3.30;;;;;;;21.69;57.79;100144.97;4896569;28;20409;-61
2023/05/27 02:09:33;;;;;;;19.87;4.13;;;;;;;21.81;57.01;100146.84;4898727;28;20314;-65
2023/05/27 02:12:05;;;;;;;45.17;14.10;;;;;;;21.87;56.54;100135.81;4909552;28;20891;-65
2023/05/27 02:14:38;;;;;;;12.87;4.27;;;;;;;21.72;55.90;100094.25;4907508;28;20306;-60
2023/05/27 02:17:08;;;;;;;8.03;3.43;;;;;;;21.91;55.87;100124.00;4901464;28;20279;-59
2023/05/27 02:19:39;;;;;;;11.20;3.43;;;;;;;21.85;55.82;100127.06;4902474;28;20318;-60
2023/05/27 02:22:10;;;;;;;9.10;3.70;;;;;;;21.87;56.40;100125.16;4905636;28;20602;-58
2023/05/27 02:24:42;;;;;;;13.30;3.57;;;;;;;21.74;56.52;100134.88;4902416;28;20374;-63
2023/05/27 02:27:13;;;;;;;10.97;3.33;;;;;;;21.58;56.36;100094.31;4907416;28;20303;-63
2023/05/27 02:29:44;;;;;;;13.70;3.50;;;;;;;21.87;55.61;100137.63;4903267;28;20721;-61
2023/05/27 02:32:14;;;;;;;11.33;3.33;;;;;;;22.04;55.57;100148.00;4903439;28;20307;-63
2023/05/27 02:34:45;;;;;;;11.23;4.70;;;;;;;22.12;56.44;100144.84;4902022;28;20278;-62
2023/05/27 02:37:15;;;;;;;18.80;3.57;;;;;;;22.21;55.55;100133.59;4901839;28;20383;-60
2023/05/27 02:39:48;;;;;;;17.07;3.67;;;;;;;22.39;55.28;100145.69;4908869;28;20840;-63
2023/05/27 02:42:18;;;;;;;12.60;3.20;;;;;;;22.67;54.90;100143.81;4903704;28;20310;-61
2023/05/27 02:44:49;;;;;;;9.73;3.17;;;;;;;22.79;54.41;100132.31;4902844;28;20693;-63
2023/05/27 02:47:20;;;;;;;12.03;2.77;;;;;;;22.69;53.41;100152.56;4906203;28;20274;-61
2023/05/27 02:49:51;;;;;;;14.77;3.10;;;;;;;22.60;54.35;100147.84;4907597;28;20383;-62
2023/05/27 02:52:21;;;;;;;9.33;2.87;;;;;;;22.53;53.29;100149.22;4906656;28;20354;-61
2023/05/27 02:54:53;;;;;;;13.70;2.93;;;;;;;22.50;53.91;100154.75;4905725;28;20310;-61
2023/05/27 02:57:24;;;;;;;11.10;2.93;;;;;;;22.26;53.65;100147.44;4907028;28;20279;-60
2023/05/27 02:59:55;;;;;;;5.73;2.70;;;;;;;22.32;53.78;100157.69;4906891;28;20291;-61
2023/05/27 03:02:26;;;;;;;6.67;2.97;;;;;;;22.17;53.35;100137.41;4904181;28;20765;-60
2023/05/27 03:04:56;;;;;;;44.67;7.70;;;;;;;22.01;52.67;100140.22;4910611;28;20283;-60
2023/05/27 03:07:28;;;;;;;44.70;4.87;;;;;;;22.17;52.70;100137.41;4908385;28;22126;-62
2023/05/27 03:10:01;;;;;;;7.30;2.80;;;;;;;22.46;52.18;100142.59;4906876;28;20344;-60
2023/05/27 03:12:31;;;;;;;10.50;3.17;;;;;;;22.76;51.42;100147.63;4906396;28;20322;-61
2023/05/27 03:15:02;;;;;;;15.73;3.10;;;;;;;22.94;51.32;100142.84;4906913;28;20275;-61
2023/05/27 03:17:32;;;;;;;30.73;3.60;;;;;;;23.09;50.01;100141.81;4907149;28;20345;-59
2023/05/27 03:20:06;;;;;;;17.40;3.70;;;;;;;23.24;47.52;100150.53;4910124;28;20279;-60
2023/05/27 03:22:37;;;;;;;11.37;3.90;;;;;;;23.44;46.05;100143.78;4899657;28;20381;-60
2023/05/27 03:25:11;;;;;;;9.83;3.20;;;;;;;23.54;46.27;100142.16;4907413;28;20102;-61
2023/05/27 03:27:41;;;;;;;22.47;3.43;;;;;;;23.66;45.90;100145.72;4906047;28;20068;-60
2023/05/27 03:30:12;;;;;;;15.13;2.57;;;;;;;23.77;45.01;100159.19;4905573;28;20059;-61
2023/05/27 03:32:43;;;;;;;10.53;2.93;;;;;;;23.57;44.26;100147.25;4903733;28;20057;-60
2023/05/27 03:35:14;;;;;;;19.63;3.60;;;;;;;23.43;44.68;100155.38;4905378;28;20048;-61
2023/05/27 03:37:45;;;;;;;18.10;3.73;;;;;;;22.73;43.10;100137.19;4906270;28;20048;-60
2023/05/27 03:40:17;;;;;;;17.73;3.40;;;;;;;22.83;44.62;100140.94;4900814;28;20152;-59
2023/05/27 03:42:48;;;;;;;19.53;3.63;;;;;;;23.15;44.35;100145.84;4906457;28;20492;-60
2023/05/27 03:45:19;;;;;;;16.13;3.40;;;;;;;23.21;43.97;100146.28;4905360;28;20062;-61
2023/05/27 03:47:49;;;;;;;8.43;3.33;;;;;;;23.49;44.01;100149.63;4905243;28;20052;-61
2023/05/27 03:50:20;;;;;;;13.63;3.47;;;;;;;23.32;41.53;100152.66;4905138;28;20062;-61
2023/05/27 03:52:51;;;;;;;9.57;3.00;;;;;;;23.03;42.63;100134.22;4906959;28;20048;-60
2023/05/27 03:55:23;;;;;;;15.93;3.17;;;;;;;23.09;43.11;100141.81;4905397;28;20110;-59
2023/05/27 03:57:54;;;;;;;11.10;2.30;;;;;;;22.96;41.32;100147.09;4905975;28;20111;-59
2023/05/27 04:00:24;;;;;;;14.63;2.80;;;;;;;23.21;43.49;100143.63;4905086;28;20314;-60
2023/05/27 04:02:56;;;;;;;15.10;2.90;;;;;;;23.62;43.31;100145.09;4906692;28;20137;-60
2023/05/27 04:05:26;;;;;;;13.83;3.03;;;;;;;23.77;43.43;100142.31;4899760;28;20054;-58
2023/05/27 04:07:57;;;;;;;13.03;3.47;;;;;;;23.96;42.57;100149.81;4907690;28;20065;-59
2023/05/27 04:10:29;;;;;;;15.63;3.63;;;;;;;23.98;41.80;100135.38;4905663;28;20135;-59
2023/05/27 04:13:00;;;;;;;21.60;3.90;;;;;;;23.79;41.38;100145.69;4906394;28;20578;-60
2023/05/27 04:15:30;;;;;;;75.17;7.27;;;;;;;23.59;42.95;100169.34;4906018;28;20056;-60
2023/05/27 04:18:01;;;;;;;13.07;3.90;;;;;;;23.52;42.64;100152.06;4903950;28;20561;-59
2023/05/27 04:20:39;;;;;;;17.97;4.33;;;;;;;23.18;43.81;100159.81;4907868;28;20706;-61
2023/05/27 04:23:10;;;;;;;15.80;3.97;;;;;;;22.82;44.36;100165.88;4894335;28;20049;-60
2023/05/27 04:25:42;;;;;;;11.50;3.30;;;;;;;22.87;45.09;100157.56;4902050;28;20052;-60
2023/05/27 04:28:13;;;;;;;15.23;4.53;;;;;;;22.81;44.89;100159.69;4903603;28;20048;-59
2023/05/27 04:30:45;;;;;;;17.57;3.77;;;;;;;23.03;46.12;100158.22;4905669;28;20059;-61
2023/05/27 04:33:17;;;;;;;13.00;3.67;;;;;;;23.30;43.95;100154.56;4902644;28;20838;-61
2023/05/27 04:35:48;;;;;;;15.87;3.50;;;;;;;23.45;44.44;100156.13;4905469;28;20482;-60
2023/05/27 04:38:20;;;;;;;14.03;3.73;;;;;;;23.72;43.01;100163.13;4906585;28;20415;-60
2023/05/27 04:40:55;;;;;;;17.37;4.30;;;;;;;23.48;43.99;100161.25;4905095;28;20055;-61
2023/05/27 04:43:26;;;;;;;12.27;3.57;;;;;;;23.55;44.21;100164.34;4906221;28;20059;-58
2023/05/27 04:45:59;;;;;;;13.73;4.07;;;;;;;23.45;43.45;100148.16;4908565;28;20050;-58
2023/05/27 04:48:29;;;;;;;18.93;3.97;;;;;;;23.43;43.84;100171.41;4905159;28;20076;-60
2023/05/27 04:51:00;;;;;;;15.63;3.67;;;;;;;23.47;43.44;100175.56;4903990;28;20173;-61
2023/05/27 04:53:30;;;;;;;13.40;3.60;;;;;;;23.39;43.15;100175.25;4904939;28;20147;-60
2023/05/27 04:56:03;;;;;;;8.53;3.70;;;;;;;23.38;44.50;100173.53;4904023;28;20053;-58
2023/05/27 04:58:33;;;;;;;8.63;3.20;;;;;;;23.56;44.95;100168.69;4905472;28;20052;-59
2023/05/27 05:01:04;;;;;;;16.60;3.97;;;;;;;23.59;43.44;100172.00;4905241;28;20135;-60
2023/05/27 05:03:50;;;;;;;11.63;3.70;;;;;;;23.48;43.13;100170.09;4911212;28;20052;-60
2023/05/27 05:06:22;;;;;;;13.17;3.27;;;;;;;23.42;42.54;100175.03;4895256;28;20071;-60
2023/05/27 05:08:53;;;;;;;11.57;3.40;;;;;;;23.29;42.97;100185.72;4903720;28;20048;-58
2023/05/27 05:11:26;;;;;;;17.83;3.80;;;;;;;23.27;43.56;100170.78;4903860;28;20063;-59
2023/05/27 05:13:57;;;;;;;10.57;3.57;;;;;;;23.43;42.29;100172.25;4898058;28;20046;-60
2023/05/27 05:16:27;;;;;;;13.70;4.20;;;;;;;23.28;43.29;100140.50;4905048;28;20056;-58
2023/05/27 05:18:58;;;;;;;19.07;3.60;;;;;;;23.67;43.99;100164.28;4905127;28;20379;-61
2023/05/27 05:21:29;;;;;;;8.17;3.20;;;;;;;23.78;42.77;100157.34;4905499;28;20727;-60
2023/05/27 05:24:00;;;;;;;25.20;3.63;;;;;;;23.90;43.20;100165.31;4903834;28;20131;-61
2023/05/27 05:26:32;;;;;;;10.63;3.20;;;;;;;23.97;41.71;100163.03;4902812;28;20056;-59
2023/05/27 05:29:03;;;;;;;41.07;5.43;;;;;;;23.93;41.17;100163.38;4902906;28;20056;-61
2023/05/27 05:31:33;;;;;;;14.47;4.00;;;;;;;24.00;43.01;100160.16;4904818;28;20048;-59
2023/05/27 05:34:04;;;;;;;13.90;3.20;;;;;;;24.21;42.85;100162.16;4902947;28;20063;-60
2023/05/27 05:36:35;;;;;;;8.57;3.60;;;;;;;24.03;41.47;100143.91;4903959;28;20048;-64
2023/05/27 05:39:06;;;;;;;11.10;3.63;;;;;;;23.62;40.77;100150.44;4901806;28;20471;-63
2023/05/27 05:41:38;;;;;;;19.87;4.17;;;;;;;23.47;41.43;100149.72;4909306;28;20586;-61
2023/05/27 05:44:09;;;;;;;14.90;3.83;;;;;;;23.32;42.37;100163.31;4905200;28;20060;-63
2023/05/27 05:46:39;;;;;;;21.63;3.93;;;;;;;23.36;43.79;100111.47;4904562;28;20492;-63
2023/05/27 05:49:10;;;;;;;6.63;3.43;;;;;;;23.77;42.50;100153.00;4905037;28;20052;-62
2023/05/27 05:51:41;;;;;;;14.37;4.10;;;;;;;23.97;42.07;100149.69;4904528;28;20052;-62
2023/05/27 05:54:11;;;;;;;13.17;4.23;;;;;;;24.15;42.60;100157.31;4904733;28;20052;-61
2023/05/27 05:56:43;;;;;;;16.43;4.50;;;;;;;23.94;42.36;100139.25;4901885;28;20063;-62
2023/05/27 05:59:14;;;;;;;12.47;4.07;;;;;;;23.52;42.78;100149.41;4904556;28;20056;-64
2023/05/27 06:01:44;;;;;;;13.67;4.50;;;;;;;23.02;42.78;100153.88;4904796;28;20143;-63
2023/05/27 06:04:15;;;;;;;20.13;3.80;;;;;;;22.69;44.31;100155.22;4904732;28;20485;-63
2023/05/27 06:06:45;;;;;;;10.40;3.90;;;;;;;22.36;44.88;100159.19;4901083;28;20069;-63
2023/05/27 06:09:16;;;;;;;23.40;5.00;;;;;;;22.10;45.60;100157.38;4910157;28;20055;-64
2023/05/27 06:11:48;;;;;;;22.63;5.33;;;;;;;21.92;45.50;100151.47;4907822;28;20050;-63
2023/05/27 06:14:19;;;;;;;11.10;3.70;;;;;;;21.87;46.66;100175.72;4904046;28;20139;-63
2023/05/27 06:16:49;;;;;;;24.47;4.73;;;;;;;21.87;46.49;100175.72;4904760;28;20274;-64
2023/05/27 06:19:20;;;;;;;14.03;3.47;;;;;;;22.10;46.52;100178.69;4904999;28;20274;-64
2023/05/27 06:21:51;;;;;;;13.13;4.43;;;;;;;22.53;45.97;100186.50;4906208;28;21110;-62
2023/05/27 06:24:21;;;;;;;13.63;4.23;;;;;;;22.81;45.64;100181.00;4907237;28;20294;-64
2023/05/27 06:26:54;;;;;;;10.90;4.13;;;;;;;22.88;45.43;100185.91;4907193;28;20322;-63
2023/05/27 06:29:24;;;;;;;13.60;4.40;;;;;;;22.65;45.42;100180.34;4908765;28;20782;-63
2023/05/27 06:31:55;;;;;;;17.67;4.20;;;;;;;22.38;45.32;100188.38;4908565;28;20321;-62
2023/05/27 06:34:26;;;;;;;9.07;3.50;;;;;;;22.15;45.74;100197.84;4899923;28;20335;-64
2023/05/27 06:36:57;;;;;;;13.03;4.07;;;;;;;22.35;45.94;100189.44;4909048;28;20364;-65
2023/05/27 06:39:28;;;;;;;10.53;4.37;;;;;;;22.67;45.66;100197.06;4908383;28;20147;-63
2023/05/27 06:42:01;;;;;;;9.33;4.50;;;;;;;22.95;44.81;100187.19;4908170;28;20766;-66
2023/05/27 06:44:32;;;;;;;10.17;4.63;;;;;;;23.14;44.50;100195.66;4899753;28;20291;-65
2023/05/27 06:47:03;;;;;;;10.27;4.30;;;;;;;23.23;44.77;100196.81;4907299;28;20337;-64
2023/05/27 06:49:34;;;;;;;8.43;3.70;;;;;;;23.31;44.10;100198.94;4907403;28;20392;-64
2023/05/27 06:52:05;;;;;;;21.87;3.93;;;;;;;23.22;44.61;100206.63;4907042;28;20045;-66
2023/05/27 06:54:39;;;;;;;13.03;4.60;;;;;;;23.17;44.54;100203.41;4897060;28;20048;-64
2023/05/27 06:57:12;;;;;;;12.63;4.30;;;;;;;23.11;44.13;100203.84;4907749;28;20743;-64
2023/05/27 06:59:42;;;;;;;11.80;3.87;;;;;;;22.99;44.26;100205.56;4907707;28;20050;-62
2023/05/27 07:02:13;;;;;;;12.30;4.27;;;;;;;22.92;44.88;100209.56;4906579;28;20279;-62
2023/05/27 07:04:44;;;;;;;12.20;4.20;;;;;;;22.89;44.08;100219.56;4906327;28;20052;-63
2023/05/27 07:07:14;;;;;;;12.03;3.87;;;;;;;22.68;45.06;100212.09;4907148;28;20121;-65
2023/05/27 07:09:45;;;;;;;13.87;4.10;;;;;;;22.54;44.17;100209.50;4906793;28;20048;-64
2023/05/27 07:12:18;;;;;;;16.07;4.20;;;;;;;22.58;45.36;100211.84;4903771;28;20053;-63
2023/05/27 07:14:48;;;;;;;12.57;4.83;;;;;;;22.72;44.93;100210.94;4906514;28;20061;-63
2023/05/27 07:17:19;;;;;;;13.63;4.60;;;;;;;22.88;44.70;100220.53;4907541;28;20377;-63
2023/05/27 07:19:50;;;;;;;12.83;4.53;;;;;;;22.76;44.34;100215.06;4906802;28;20063;-63
2023/05/27 07:22:20;;;;;;;11.80;3.83;;;;;;;22.78;44.14;100213.16;4904929;28;20068;-63
2023/05/27 07:24:51;;;;;;;13.47;4.10;;;;;;;22.57;43.67;100206.63;4906787;28;20088;-64
2023/05/27 07:27:23;;;;;;;12.83;4.40;;;;;;;22.58;45.22;100197.69;4906309;28;20097;-65
2023/05/27 07:29:54;;;;;;;14.20;4.20;;;;;;;22.68;44.04;100203.25;4906246;28;20378;-65
2023/05/27 07:32:25;;;;;;;16.53;4.50;;;;;;;22.61;43.85;100205.47;4904291;28;20375;-64
2023/05/27 07:34:55;;;;;;;16.70;4.57;;;;;;;22.52;43.90;100206.09;4905760;28;20144;-64
2023/05/27 07:37:26;;;;;;;13.60;4.00;;;;;;;22.50;44.04;100213.34;4912912;28;20338;-65
2023/05/27 07:39:56;;;;;;;14.83;4.07;;;;;;;22.52;43.61;100206.09;4910055;28;20280;-64
2023/05/27 07:42:29;;;;;;;13.33;4.13;;;;;;;22.54;44.10;100204.16;4907364;28;20286;-64
2023/05/27 07:45:02;;;;;;;13.37;4.10;;;;;;;22.56;44.21;100196.94;4906511;28;20282;-65
2023/05/27 07:47:33;;;;;;;10.80;4.43;;;;;;;22.58;44.17;100189.69;4907216;28;20060;-65
2023/05/27 07:50:04;;;;;;;10.97;4.57;;;;;;;22.66;44.02;100182.03;4905326;28;20287;-64
2023/05/27 07:52:34;;;;;;;17.60;4.20;;;;;;;22.52;43.86;100190.13;4905249;28;20060;-64
2023/05/27 07:55:05;;;;;;;12.30;4.17;;;;;;;22.56;43.93;100191.59;4904017;28;20079;-64
2023/05/27 07:57:38;;;;;;;9.90;4.03;;;;;;;22.59;43.89;100186.09;4900114;28;20048;-64
2023/05/27 08:00:09;;;;;;;24.30;4.83;;;;;;;22.60;43.59;100187.78;4902706;28;20067;-64
2023/05/27 08:02:41;;;;;;;13.87;4.27;;;;;;;22.34;44.00;100150.47;4907730;28;20290;-65
2023/05/27 08:05:12;;;;;;;12.23;3.57;;;;;;;22.63;44.35;100192.91;4906654;28;20286;-65
2023/05/27 08:07:42;;;;;;;17.23;3.57;;;;;;;22.66;43.61;100192.69;4906052;28;20301;-64
2023/05/27 08:10:13;;;;;;;20.50;4.07;;;;;;;22.59;43.35;100199.41;4905706;28;20366;-65
2023/05/27 08:12:45;;;;;;;12.40;3.80;;;;;;;22.53;43.43;100195.31;4906060;28;20373;-64
2023/05/27 08:15:16;;;;;;;16.20;4.30;;;;;;;22.07;42.13;100158.44;4902837;28;20279;-64
2023/05/27 08:17:46;;;;;;;14.33;3.83;;;;;;;22.00;43.03;100156.28;4911066;28;20037;-64
2023/05/27 08:20:17;;;;;;;13.57;3.70;;;;;;;22.22;43.26;100193.88;4907564;28;20638;-63
2023/05/27 08:22:47;;;;;;;17.30;4.23;;;;;;;22.24;43.63;100191.09;4905742;28;20048;-65
2023/05/27 08:25:18;;;;;;;11.80;3.50;;;;;;;22.29;43.29;100194.28;4906143;28;20282;-66
2023/05/27 08:27:52;;;;;;;15.90;4.67;;;;;;;22.31;43.58;100198.56;4904382;28;20267;-64
2023/05/27 08:30:23;;;;;;;17.13;4.20;;;;;;;22.30;43.74;100185.38;4905244;28;20665;-65
2023/05/27 08:32:53;;;;;;;12.13;3.83;;;;;;;22.31;44.12;100198.56;4906315;28;20935;-65
2023/05/27 08:35:24;;;;;;;16.90;3.87;;;;;;;22.18;43.87;100181.69;4905938;28;20750;-65
2023/05/27 08:37:54;;;;;;;18.27;5.50;;;;;;;22.28;44.18;100201.44;4904466;28;20301;-64
2023/05/27 08:40:25;;;;;;;19.50;4.07;;;;;;;22.29;44.78;100204.94;4906015;28;20262;-65
2023/05/27 08:42:58;;;;;;;31.60;6.37;;;;;;;22.28;45.11;100204.09;4899195;28;21000;-64
2023/05/27 08:45:30;;;;;;;16.47;4.37;;;;;;;22.09;45.30;100176.94;4905914;28;20104;-64
2023/05/27 08:48:01;;;;;;;223.03;30.40;;;;;;;22.29;44.92;100200.50;4904866;28;20352;-64
2023/05/27 08:50:31;;;;;;;11.00;4.30;;;;;;;22.25;45.50;100204.31;4906058;28;20773;-65
2023/05/27 08:53:03;;;;;;;30.23;19.10;;;;;;;21.99;46.67;100216.63;4905896;28;20290;-64
2023/05/27 08:55:35;;;;;;;26.77;10.33;;;;;;;21.65;47.66;100220.59;4905099;28;20297;-64
2023/05/27 08:58:08;;;;;;;32.57;11.87;;;;;;;21.02;49.25;100196.06;4900850;28;20352;-64
2023/05/27 09:00:41;;;;;;;30.43;13.13;;;;;;;20.91;50.14;100230.38;4905090;28;20906;-64
2023/05/27 09:03:15;;;;;;;15.60;6.63;;;;;;;20.64;50.73;100225.78;4905092;28;20293;-64
2023/05/27 09:05:48;;;;;;;18.77;7.97;;;;;;;20.41;51.40;100231.53;4905102;28;20698;-63
2023/05/27 09:08:19;;;;;;;24.23;8.37;;;;;;;20.14;52.18;100229.50;4907973;28;20770;-63
2023/05/27 09:11:01;;;;;;;16.80;5.83;;;;;;;20.04;52.63;100233.63;4894347;28;20287;-63
2023/05/27 09:13:33;;;;;;;18.97;6.70;;;;;;;19.80;53.23;100242.00;4905441;28;20390;-62
2023/05/27 09:16:25;;;;;;;23.20;6.20;;;;;;;19.56;54.04;100238.00;4895234;28;20283;-64
2023/05/27 09:19:17;;;;;;;24.93;6.13;;;;;;;19.46;54.55;100242.09;4887878;28;20284;-63
2023/05/27 09:21:53;;;;;;;20.43;6.30;;;;;;;19.39;55.12;100247.72;4894631;28;20274;-64
2023/05/27 09:24:25;;;;;;;24.10;6.80;;;;;;;19.28;55.08;100234.19;4904533;28;20373;-64
2023/05/27 09:26:56;;;;;;;19.03;6.37;;;;;;;19.19;55.41;100245.25;4900757;28;20726;-64
2023/05/27 09:29:34;;;;;;;21.67;7.17;;;;;;;19.13;56.01;100256.19;4906461;28;20299;-62
2023/05/27 09:32:07;;;;;;;16.57;6.93;;;;;;;18.95;56.34;100247.41;4905049;28;20328;-64
2023/05/27 09:34:43;;;;;;;18.00;7.10;;;;;;;18.74;56.47;100255.44;4894210;28;20374;-64
2023/05/27 09:37:15;;;;;;;21.03;6.10;;;;;;;18.34;56.87;100201.03;4904003;28;20371;-64
2023/05/27 09:39:46;;;;;;;22.53;6.43;;;;;;;18.51;57.21;100253.94;4898557;28;20275;-64
2023/05/27 09:42:19;;;;;;;18.13;6.20;;;;;;;18.35;57.72;100258.31;4903054;28;20279;-66
2023/05/27 09:44:52;;;;;;;23.53;7.17;;;;;;;18.16;58.06;100257.47;4902960;28;20732;-63
2023/05/27 09:47:24;;;;;;;19.60;6.50;;;;;;;18.00;58.48;100268.78;4909888;28;20287;-63
2023/05/27 09:49:55;;;;;;;24.37;7.07;;;;;;;17.76;58.98;100259.31;4904553;28;20311;-63
2023/05/27 09:52:28;;;;;;;19.83;6.30;;;;;;;17.72;59.65;100273.59;4895279;28;20287;-64
2023/05/27 09:55:14;;;;;;;30.43;6.73;;;;;;;17.59;60.22;100289.13;4893211;28;20291;-63
2023/05/27 09:57:48;;;;;;;19.77;6.57;;;;;;;17.42;60.70;100271.38;4908729;28;20382;-63
2023/05/27 10:00:22;;;;;;;27.47;6.57;;;;;;;17.27;61.48;100277.34;4897533;28;20975;-63
2023/05/27 10:02:53;;;;;;;25.00;7.00;;;;;;;17.04;62.34;100279.22;4907903;28;20275;-63
2023/05/27 10:05:24;;;;;;;21.00;7.50;;;;;;;16.85;63.04;100281.78;4908114;28;20289;-63
2023/05/27 10:07:56;;;;;;;31.43;8.67;;;;;;;16.73;63.56;100283.13;4907750;28;20277;-64
2023/05/27 10:10:45;;;;;;;23.20;8.17;;;;;;;16.53;64.27;100283.09;4897498;28;20290;-63
2023/05/27 10:13:18;;;;;;;26.03;7.73;;;;;;;16.42;64.92;100298.47;4907228;28;21361;-64
2023/05/27 10:15:54;;;;;;;26.07;7.97;;;;;;;16.18;65.61;100280.94;4909687;28;20283;-65
2023/05/27 10:18:44;;;;;;;34.93;8.57;;;;;;;16.01;65.64;100282.50;4896920;28;20324;-64
2023/05/27 10:21:22;;;;;;;34.35;8.20;;;;;;;15.18;66.38;100175.84;4896961;28;20275;-64
2023/05/27 10:24:01;;;;;;;32.17;7.80;;;;;;;15.77;66.82;100298.31;4906954;28;20122;-64
2023/05/27 10:26:38;;;;;;;29.83;8.87;;;;;;;15.78;67.58;100302.69;4897711;28;20619;-64
2023/05/27 10:29:19;;;;;;;26.00;8.47;;;;;;;15.67;67.99;100304.81;4896035;28;20283;-63
2023/05/27 10:31:53;;;;;;;34.28;9.60;;;;;;;15.60;68.44;100298.03;4896403;28;20287;-64
2023/05/27 10:34:35;;;;;;;29.67;8.83;;;;;;;15.59;68.73;100306.88;4906342;28;20056;-65
2023/05/27 10:37:11;;;;;;;25.63;7.53;;;;;;;15.51;69.05;100300.09;4892021;28;20293;-63
2023/05/27 10:40:06;;;;;;;23.17;8.10;;;;;;;15.16;69.53;100266.28;4905625;28;20878;-64
2023/05/27 10:42:40;;;;;;;29.03;8.10;;;;;;;15.27;70.21;100300.97;4885311;28;20282;-65
2023/05/27 10:45:34;;;;;;;32.73;8.40;;;;;;;15.22;70.94;100308.16;4906227;28;20340;-62
2023/05/27 10:48:17;;;;;;;24.80;9.40;;;;;;;15.10;71.33;100298.91;4888861;28;20516;-62
2023/05/27 10:51:02;;;;;;;48.83;11.73;;;;;;;14.53;71.21;100208.81;4884948;28;20336;-63
2023/05/27 10:53:42;;;;;;;25.73;10.10;;;;;;;14.99;71.23;100298.44;4897132;28;20297;-62
2023/05/27 10:56:13;;;;;;;26.70;10.17;;;;;;;14.91;71.62;100308.38;4896866;28;20682;-64
2023/05/27 10:58:45;;;;;;;27.93;8.93;;;;;;;14.88;71.70;100314.59;4906828;28;20428;-63
2023/05/27 11:01:20;;;;;;;21.00;8.17;;;;;;;14.87;71.44;100323.38;4901848;28;20284;-63
2023/05/27 11:03:55;;;;;;;23.67;8.57;;;;;;;14.79;71.45;100320.16;4906735;28;20289;-64
2023/05/27 11:06:29;;;;;;;27.33;8.13;;;;;;;14.66;71.51;100320.56;4902920;28;20280;-63
2023/05/27 11:09:05;;;;;;;24.50;8.43;;;;;;;14.51;71.93;100310.50;4906453;28;20274;-63
2023/05/27 11:11:38;;;;;;;27.80;9.10;;;;;;;14.45;72.24;100329.06;4906159;28;21480;-63
2023/05/27 11:14:09;;;;;;;30.13;8.70;;;;;;;14.33;72.75;100318.97;4907130;28;20301;-62
2023/05/27 11:16:40;;;;;;;30.80;8.00;;;;;;;14.23;73.08;100321.88;4907479;28;20310;-64
2023/05/27 11:19:18;;;;;;;26.13;8.95;;;;;;;13.93;73.72;100299.16;4905873;28;20290;-63
2023/05/27 11:21:51;;;;;;;31.13;9.63;;;;;;;14.05;74.12;100332.91;4897384;28;20114;-64
2023/05/27 11:24:22;;;;;;;28.77;9.23;;;;;;;14.01;74.50;100341.81;4906699;28;20063;-64
2023/05/27 11:26:53;;;;;;;24.48;8.90;;;;;;;14.02;74.57;100343.53;4906756;28;20759;-62
2023/05/27 11:29:27;;;;;;;29.58;10.07;;;;;;;13.96;74.78;100343.72;4916613;28;20060;-63
2023/05/27 11:32:00;;;;;;;24.73;9.27;;;;;;;13.97;74.82;100334.91;4897022;28;20481;-63
2023/05/27 11:34:35;;;;;;;21.70;8.77;;;;;;;14.00;74.78;100345.31;4904517;28;20056;-62
2023/05/27 11:37:07;;;;;;;24.63;8.75;;;;;;;13.86;75.10;100347.53;4898588;28;20046;-62
2023/05/27 11:39:51;;;;;;;26.98;9.27;;;;;;;13.65;75.78;100339.31;4905136;28;20093;-63
2023/05/27 11:42:30;;;;;;;30.10;9.07;;;;;;;13.47;76.45;100318.84;4896564;28;20106;-64